Greenfield, California
Current Conditions -  °F | °C
As of 7:28 PM on Friday 24 Oct 2014 (Local Time) from KSNS Reporting Station
Broken Clouds Broken Clouds  
Wind Chill: 64°   Ceiling: 1900
Heat Index: 64°   Visibility: 10mi
Dew Point: 55°   Wind: 6mph
Humidity: 73%   Direction: 340°NNW
Pressure: 29.93"   Gusts: NA
Location:  36.32°N, 121.24°W
Report Text: KSNS 250228Z 34005KT 10SM BKN019 18/13 A2993 RMK AO2
Loading
Personal Weather Stations






























Interactive Weather Map
Tropical Storm Tracking
New forecast layout! Learn more

10-Day Weather Forecast

Advertisements
Track Severe Weather on mobile